Weather History for KVVV - March, 2013

Change the Weather History Date:

Monday, March 11, 2013

  Actual Average (KAQP) Record (KAQP)
Temperature  
Mean Temperature 18 °F -  
Max Temperature 32 °F 28 °F 62 °F (2012)
Min Temperature 3 °F 13 °F -7 °F (1998)
Degree Days  
Heating Degree Days 48    
Moisture  
Dew Point 8 °F    
Average Humidity 75    
Maximum Humidity 85    
Minimum Humidity 63    
Precipitation  
Precipitation 0.00 in - - ()
Sea Level Pressure  
Sea Level Pressure 29.90 in    
Wind  
Wind Speed 9 mph (NW)    
Max Wind Speed 15 mph    
Max Gust Speed 17 mph    
Visibility 10 miles    
Events      
Averages and records for this station are not official NWS values.
T = Trace of Precipitation, MM = Missing Value Source: NWS Daily Summary

Daily Weather History Graph

Daily Weather History Graph

Search for Another Location

Airport or City:

Trip Planner

Search our weather history database for the weather conditions in past years. The results will help you decide how hot, cold, wet, or windy it might be!

Date:

Astronomy

Mar. 11, 2013 Rise Set
Actual Time 7:45 AM CDT 7:26 PM CDT
Civil Twilight 7:15 AM CDT 7:56 PM CDT
Nautical Twilight 6:41 AM CDT 8:30 PM CDT
Astronomical Twilight 6:06 AM CDT 9:05 PM CDT
Moon 7:18 AM CDT (3/11) 7:43 PM CDT (3/11)
Length of Visible Light 12h 40m
Length of Day
11h 41m
Waning Crescent, 0% of the Moon is Illuminated
Mar 11
Waning Crescent
Mar 11
New
Mar 19
First Quarter
Mar 27
Full
Apr 2
Last Quarter

Hourly Weather History & Observations

Time (CDT) Temp. Windchill Dew Point Humidity Pressure Visibility Wind Dir Wind Speed Gust Speed Precip Events Conditions
12:14 AM 12.2 °F -3.1 °F 6.8 °F 79% 30.03 in 10.0 mi NNW 13.8 mph - N/A   Clear
12:34 AM 10.4 °F -4.8 °F 5.0 °F 79% 30.03 in 10.0 mi NNW 12.7 mph - N/A   Clear
1:14 AM 10.4 °F -6.0 °F 5.0 °F 79% 30.01 in 10.0 mi NNW 15.0 mph - N/A   Overcast
1:34 AM 10.4 °F -5.4 °F 5.0 °F 79% 30.01 in 10.0 mi NNW 13.8 mph - N/A   Overcast
1:53 AM 10.4 °F -2.4 °F 5.0 °F 79% 30.00 in 10.0 mi NNW 9.2 mph 17.3 mph N/A   Overcast
2:14 AM 10.4 °F -4.8 °F 3.2 °F 73% 30.00 in 10.0 mi NW 12.7 mph - N/A   Overcast
2:34 AM 10.4 °F -4.1 °F 5.0 °F 79% 29.99 in 10.0 mi NNW 11.5 mph - N/A   Overcast
2:53 AM 10.4 °F -3.3 °F 5.0 °F 79% 29.98 in 10.0 mi NNW 10.4 mph - N/A   Overcast
3:14 AM 8.6 °F -4.7 °F 3.2 °F 79% 29.98 in 10.0 mi NNW 9.2 mph - N/A   Mostly Cloudy
3:34 AM 8.6 °F -5.5 °F 3.2 °F 79% 29.97 in 10.0 mi NW 10.4 mph - N/A   Scattered Clouds
3:53 AM 6.8 °F -6.9 °F 1.4 °F 79% 29.96 in 10.0 mi NNW 9.2 mph - N/A   Clear
4:14 AM 6.8 °F -5.9 °F 1.4 °F 79% 29.96 in 10.0 mi NNW 8.1 mph - N/A   Clear
4:34 AM 6.8 °F -4.8 °F 1.4 °F 79% 29.95 in 10.0 mi NNW 6.9 mph - N/A   Clear
4:53 AM 6.8 °F -5.9 °F 1.4 °F 79% 29.94 in 10.0 mi NNW 8.1 mph - N/A   Clear
5:14 AM 5.0 °F -9.1 °F 1.4 °F 85% 29.94 in 10.0 mi NW 9.2 mph - N/A   Clear
5:34 AM 5.0 °F -9.1 °F 1.4 °F 85% 29.94 in 10.0 mi NNW 9.2 mph - N/A   Clear
5:53 AM 5.0 °F -6.9 °F -0.4 °F 78% 29.93 in 10.0 mi NNW 6.9 mph - N/A   Clear
6:14 AM 5.0 °F -9.1 °F -0.4 °F 78% 29.93 in 10.0 mi NNW 9.2 mph - N/A   Clear
6:34 AM 3.2 °F -9.1 °F -0.4 °F 85% 29.93 in 10.0 mi NW 6.9 mph - N/A   Clear
6:53 AM 3.2 °F -9.1 °F -0.4 °F 85% 29.93 in 10.0 mi NW 6.9 mph - N/A   Clear
7:14 AM 3.2 °F -9.1 °F -0.4 °F 85% 29.92 in 10.0 mi NW 6.9 mph - N/A   Clear
7:33 AM 5.0 °F -6.9 °F -0.4 °F 78% 29.92 in 10.0 mi NW 6.9 mph - N/A   Clear
7:54 AM 5.0 °F -6.9 °F -0.4 °F 78% 29.92 in 10.0 mi NW 6.9 mph - N/A   Clear
8:14 AM 5.0 °F -9.1 °F -0.4 °F 78% 29.92 in 10.0 mi NW 9.2 mph - N/A   Clear
8:33 AM 5.0 °F -9.1 °F -0.4 °F 78% 29.91 in 10.0 mi NNW 9.2 mph - N/A   Clear
8:54 AM 6.8 °F -5.9 °F 1.4 °F 79% 29.91 in 10.0 mi NNW 8.1 mph - N/A   Clear
9:14 AM 6.8 °F -4.8 °F 1.4 °F 79% 29.91 in 10.0 mi NNW 6.9 mph - N/A   Clear
9:34 AM 8.6 °F -1.3 °F 1.4 °F 73% 29.91 in 10.0 mi NNW 5.8 mph - N/A   Clear
9:53 AM 10.4 °F -1.5 °F 3.2 °F 73% 29.91 in 10.0 mi NNW 8.1 mph - N/A   Clear
10:14 AM 10.4 °F 0.8 °F 3.2 °F 73% 29.90 in 10.0 mi NNW 5.8 mph - N/A   Clear
10:33 AM 10.4 °F 0.8 °F 5.0 °F 79% 29.89 in 10.0 mi NW 5.8 mph - N/A   Clear
10:54 AM 12.2 °F 1.7 °F 5.0 °F 73% 29.89 in 10.0 mi North 6.9 mph - N/A   Clear
11:13 AM 12.2 °F 1.7 °F 6.8 °F 79% 29.88 in 10.0 mi North 6.9 mph - N/A   Clear
11:34 AM 14.0 °F 5.1 °F 6.8 °F 73% 29.88 in 10.0 mi North 5.8 mph - N/A   Clear
11:54 AM 15.8 °F 7.2 °F 6.8 °F 68% 29.87 in 10.0 mi NNW 5.8 mph - N/A   Clear
12:13 PM 15.8 °F 6.1 °F 8.6 °F 73% 29.87 in 10.0 mi WNW 6.9 mph - N/A   Clear
12:34 PM 15.8 °F 7.2 °F 6.8 °F 68% 29.86 in 10.0 mi North 5.8 mph - N/A   Clear
12:54 PM 17.6 °F 10.7 °F 8.6 °F 68% 29.86 in 10.0 mi North 4.6 mph - N/A   Clear
1:13 PM 17.6 °F 12.3 °F 10.4 °F 73% 29.86 in 10.0 mi NNW 3.5 mph - N/A   Clear
1:34 PM 19.4 °F 11.5 °F 10.4 °F 68% 29.85 in 10.0 mi NW 5.8 mph - N/A   Clear
1:54 PM 19.4 °F 9.5 °F 8.6 °F 63% 29.86 in 10.0 mi NW 8.1 mph - N/A   Scattered Clouds
2:13 PM 19.4 °F 9.5 °F 8.6 °F 63% 29.85 in 10.0 mi NW 8.1 mph - N/A   Clear
2:34 PM 21.2 °F 10.9 °F 10.4 °F 63% 29.85 in 10.0 mi NW 9.2 mph - N/A   Mostly Cloudy
2:53 PM 21.2 °F 10.1 °F 10.4 °F 63% 29.85 in 10.0 mi NW 10.4 mph - N/A   Overcast
3:14 PM 21.2 °F 11.7 °F 10.4 °F 63% 29.84 in 10.0 mi NNW 8.1 mph - N/A   Overcast
3:34 PM 21.2 °F 12.6 °F 10.4 °F 63% 29.84 in 10.0 mi NNW 6.9 mph - N/A   Mostly Cloudy
3:53 PM 21.2 °F 12.6 °F 10.4 °F 63% 29.83 in 10.0 mi NNW 6.9 mph - N/A   Overcast
4:14 PM 21.2 °F 14.9 °F 12.2 °F 68% 29.82 in 10.0 mi North 4.6 mph - N/A   Overcast
4:34 PM 23.0 °F 18.4 °F 14.0 °F 68% 29.82 in 10.0 mi North 3.5 mph - N/A   Mostly Cloudy
4:54 PM 32.0 °F - - N/A% 29.83 in 10.0 mi Calm Calm - N/A   Mostly Cloudy
5:14 PM 23.0 °F 14.7 °F 12.2 °F 63% 29.84 in 10.0 mi NNW 6.9 mph - N/A   Scattered Clouds
5:33 PM 21.2 °F 14.9 °F 12.2 °F 68% 29.84 in - NNW 4.6 mph - N/A   Mostly Cloudy
5:54 PM 21.2 °F 14.9 °F 14.0 °F 74% 29.83 in 10.0 mi NNW 4.6 mph - N/A   Overcast
6:14 PM 21.2 °F 14.9 °F 14.0 °F 74% 29.83 in 10.0 mi NNW 4.6 mph - N/A   Overcast
6:33 PM 21.2 °F 13.6 °F 15.8 °F 80% 29.84 in 10.0 mi NW 5.8 mph - N/A   Overcast
6:54 PM 21.2 °F 16.4 °F 14.0 °F 74% 29.84 in 10.0 mi WNW 3.5 mph - N/A   Overcast
7:13 PM 21.2 °F - 15.8 °F 80% 29.85 in 10.0 mi Calm Calm - N/A   Overcast
7:34 PM 21.2 °F - 15.8 °F 80% 29.85 in 10.0 mi Calm Calm - N/A   Overcast
7:54 PM 21.2 °F - 15.8 °F 80% 29.85 in 10.0 mi Calm Calm - N/A   Overcast
8:13 PM 21.2 °F 16.4 °F 15.8 °F 80% 29.86 in 10.0 mi SW 3.5 mph - N/A   Overcast
8:33 PM 21.2 °F 14.9 °F 15.8 °F 80% 29.86 in 10.0 mi SW 4.6 mph - N/A   Overcast
8:54 PM 23.0 °F 17.0 °F 15.8 °F 74% 29.86 in 10.0 mi SW 4.6 mph - N/A   Overcast
9:34 PM 24.8 °F 17.9 °F 17.6 °F 74% 29.85 in 10.0 mi West 5.8 mph - N/A   Overcast
9:53 PM 26.6 °F 18.2 °F 19.4 °F 74% 29.85 in 10.0 mi WNW 8.1 mph - N/A   Overcast
10:13 PM 26.6 °F 18.2 °F 19.4 °F 74% 29.86 in 10.0 mi WNW 8.1 mph - N/A   Overcast
10:34 PM 26.6 °F 18.2 °F 21.2 °F 80% 29.86 in 10.0 mi WNW 8.1 mph - N/A   Overcast
10:53 PM 26.6 °F 19.1 °F 21.2 °F 80% 29.86 in 10.0 mi WNW 6.9 mph - N/A   Overcast
11:13 PM 28.4 °F 19.7 °F 21.2 °F 74% 29.86 in 10.0 mi WNW 9.2 mph - N/A   Overcast
11:34 PM 28.4 °F 19.1 °F 21.2 °F 74% 29.86 in 10.0 mi WNW 10.4 mph - N/A   Overcast
11:53 PM 28.4 °F 19.7 °F 21.2 °F 74% 29.86 in 10.0 mi WNW 9.2 mph - N/A   Overcast